sensor_id;sensor_type;location;lat;lon;timestamp;P1;durP1;ratioP1;P2;durP2;ratioP2
60436;SDS011;46289;51.992;4.498;2023-02-12T00:00:31;19.17;;;9.63;;
60436;SDS011;46289;51.992;4.498;2023-02-12T00:02:41;18.48;;;9.73;;
60436;SDS011;46289;51.992;4.498;2023-02-12T00:04:48;16.38;;;8.85;;
60436;SDS011;46289;51.992;4.498;2023-02-12T00:06:53;16.70;;;10.15;;
60436;SDS011;46289;51.992;4.498;2023-02-12T00:08:58;16.42;;;8.98;;
60436;SDS011;46289;51.992;4.498;2023-02-12T00:11:07;17.65;;;8.45;;
60436;SDS011;46289;51.992;4.498;2023-02-12T00:13:14;21.63;;;10.57;;
60436;SDS011;46289;51.992;4.498;2023-02-12T00:15:22;18.10;;;9.57;;
60436;SDS011;46289;51.992;4.498;2023-02-12T00:17:27;21.67;;;10.65;;
60436;SDS011;46289;51.992;4.498;2023-02-12T00:19:35;20.33;;;8.77;;
60436;SDS011;46289;51.992;4.498;2023-02-12T00:21:40;20.90;;;10.93;;
60436;SDS011;46289;51.992;4.498;2023-02-12T00:23:49;18.92;;;8.73;;
60436;SDS011;46289;51.992;4.498;2023-02-12T00:25:54;17.48;;;9.18;;
60436;SDS011;46289;51.992;4.498;2023-02-12T00:27:59;19.52;;;10.00;;
60436;SDS011;46289;51.992;4.498;2023-02-12T00:30:05;17.88;;;8.60;;
60436;SDS011;46289;51.992;4.498;2023-02-12T00:32:10;15.27;;;8.85;;
60436;SDS011;46289;51.992;4.498;2023-02-12T00:34:20;17.73;;;9.70;;
60436;SDS011;46289;51.992;4.498;2023-02-12T00:36:28;15.32;;;8.88;;
60436;SDS011;46289;51.992;4.498;2023-02-12T00:38:35;17.83;;;9.50;;
60436;SDS011;46289;51.992;4.498;2023-02-12T00:40:43;17.35;;;9.45;;
60436;SDS011;46289;51.992;4.498;2023-02-12T00:42:48;22.08;;;9.73;;
60436;SDS011;46289;51.992;4.498;2023-02-12T00:44:54;24.65;;;10.80;;
60436;SDS011;46289;51.992;4.498;2023-02-12T00:46:59;17.42;;;8.95;;
60436;SDS011;46289;51.992;4.498;2023-02-12T00:49:04;17.90;;;8.85;;
60436;SDS011;46289;51.992;4.498;2023-02-12T00:51:12;17.10;;;9.05;;
60436;SDS011;46289;51.992;4.498;2023-02-12T00:53:20;18.23;;;9.52;;
60436;SDS011;46289;51.992;4.498;2023-02-12T00:55:26;20.92;;;9.70;;
60436;SDS011;46289;51.992;4.498;2023-02-12T00:57:33;21.92;;;10.23;;
60436;SDS011;46289;51.992;4.498;2023-02-12T00:59:43;18.73;;;9.55;;
60436;SDS011;46289;51.992;4.498;2023-02-12T01:01:48;19.08;;;9.32;;
60436;SDS011;46289;51.992;4.498;2023-02-12T01:03:53;15.10;;;8.07;;
60436;SDS011;46289;51.992;4.498;2023-02-12T01:05:59;15.23;;;8.05;;
60436;SDS011;46289;51.992;4.498;2023-02-12T01:08:05;16.75;;;8.77;;
60436;SDS011;46289;51.992;4.498;2023-02-12T01:10:13;18.17;;;8.93;;
60436;SDS011;46289;51.992;4.498;2023-02-12T01:12:18;15.38;;;8.73;;
60436;SDS011;46289;51.992;4.498;2023-02-12T01:14:22;16.17;;;8.73;;
60436;SDS011;46289;51.992;4.498;2023-02-12T01:16:28;16.88;;;9.30;;
60436;SDS011;46289;51.992;4.498;2023-02-12T01:18:37;15.77;;;8.00;;
60436;SDS011;46289;51.992;4.498;2023-02-12T01:20:43;16.30;;;8.25;;
60436;SDS011;46289;51.992;4.498;2023-02-12T01:22:48;15.65;;;8.35;;
60436;SDS011;46289;51.992;4.498;2023-02-12T01:24:53;16.05;;;8.13;;
60436;SDS011;46289;51.992;4.498;2023-02-12T01:27:03;16.52;;;8.20;;
60436;SDS011;46289;51.992;4.498;2023-02-12T01:29:09;14.80;;;8.50;;
60436;SDS011;46289;51.992;4.498;2023-02-12T01:31:14;13.65;;;7.88;;
60436;SDS011;46289;51.992;4.498;2023-02-12T01:33:22;15.82;;;8.13;;
60436;SDS011;46289;51.992;4.498;2023-02-12T01:35:27;14.45;;;7.57;;
60436;SDS011;46289;51.992;4.498;2023-02-12T01:37:33;15.68;;;7.53;;
60436;SDS011;46289;51.992;4.498;2023-02-12T01:39:39;17.02;;;8.05;;
60436;SDS011;46289;51.992;4.498;2023-02-12T01:41:47;16.75;;;8.82;;
60436;SDS011;46289;51.992;4.498;2023-02-12T01:44:08;15.43;;;8.77;;
60436;SDS011;46289;51.992;4.498;2023-02-12T01:46:18;17.88;;;8.50;;
60436;SDS011;46289;51.992;4.498;2023-02-12T01:48:24;19.75;;;8.95;;
60436;SDS011;46289;51.992;4.498;2023-02-12T01:50:32;17.77;;;8.23;;
60436;SDS011;46289;51.992;4.498;2023-02-12T01:52:38;14.45;;;7.97;;
60436;SDS011;46289;51.992;4.498;2023-02-12T01:54:49;14.65;;;7.45;;
60436;SDS011;46289;51.992;4.498;2023-02-12T01:56:58;17.42;;;7.35;;
60436;SDS011;46289;51.992;4.498;2023-02-12T01:59:05;13.77;;;7.25;;
60436;SDS011;46289;51.992;4.498;2023-02-12T02:01:15;13.38;;;8.00;;
60436;SDS011;46289;51.992;4.498;2023-02-12T02:03:25;13.27;;;7.18;;
60436;SDS011;46289;51.992;4.498;2023-02-12T02:05:32;12.93;;;7.13;;
60436;SDS011;46289;51.992;4.498;2023-02-12T02:07:46;12.23;;;6.72;;
60436;SDS011;46289;51.992;4.498;2023-02-12T02:09:52;12.80;;;7.65;;
60436;SDS011;46289;51.992;4.498;2023-02-12T02:11:58;13.63;;;7.40;;
60436;SDS011;46289;51.992;4.498;2023-02-12T02:14:33;13.82;;;7.28;;
60436;SDS011;46289;51.992;4.498;2023-02-12T02:16:38;15.18;;;7.93;;
60436;SDS011;46289;51.992;4.498;2023-02-12T02:18:47;12.45;;;7.00;;
60436;SDS011;46289;51.992;4.498;2023-02-12T02:21:10;12.27;;;7.03;;
60436;SDS011;46289;51.992;4.498;2023-02-12T02:26:12;12.98;;;6.68;;
60436;SDS011;46289;51.992;4.498;2023-02-12T02:28:32;12.25;;;6.95;;
60436;SDS011;46289;51.992;4.498;2023-02-12T02:30:59;13.75;;;8.15;;
60436;SDS011;46289;51.992;4.498;2023-02-12T02:33:23;17.17;;;7.25;;
60436;SDS011;46289;51.992;4.498;2023-02-12T02:35:40;14.63;;;7.63;;
60436;SDS011;46289;51.992;4.498;2023-02-12T02:38:02;12.65;;;7.07;;
60436;SDS011;46289;51.992;4.498;2023-02-12T02:40:21;12.95;;;7.38;;
60436;SDS011;46289;51.992;4.498;2023-02-12T02:42:30;13.52;;;6.85;;
60436;SDS011;46289;51.992;4.498;2023-02-12T02:44:41;17.85;;;8.73;;
60436;SDS011;46289;51.992;4.498;2023-02-12T02:46:54;18.23;;;8.25;;
60436;SDS011;46289;51.992;4.498;2023-02-12T02:49:02;14.80;;;8.15;;
60436;SDS011;46289;51.992;4.498;2023-02-12T02:51:13;14.73;;;8.38;;
60436;SDS011;46289;51.992;4.498;2023-02-12T02:53:25;14.70;;;8.05;;
60436;SDS011;46289;51.992;4.498;2023-02-12T02:55:36;13.35;;;7.53;;
60436;SDS011;46289;51.992;4.498;2023-02-12T02:57:53;14.27;;;7.80;;
60436;SDS011;46289;51.992;4.498;2023-02-12T03:00:04;17.98;;;7.97;;
60436;SDS011;46289;51.992;4.498;2023-02-12T03:02:19;14.60;;;7.63;;
60436;SDS011;46289;51.992;4.498;2023-02-12T03:04:29;12.38;;;7.65;;
60436;SDS011;46289;51.992;4.498;2023-02-12T03:06:39;13.57;;;8.00;;
60436;SDS011;46289;51.992;4.498;2023-02-12T03:08:51;18.13;;;9.18;;
60436;SDS011;46289;51.992;4.498;2023-02-12T03:11:04;14.63;;;8.18;;
60436;SDS011;46289;51.992;4.498;2023-02-12T03:13:14;15.40;;;8.65;;
60436;SDS011;46289;51.992;4.498;2023-02-12T03:15:24;18.05;;;9.25;;
60436;SDS011;46289;51.992;4.498;2023-02-12T03:17:40;23.15;;;11.48;;
60436;SDS011;46289;51.992;4.498;2023-02-12T03:19:49;17.92;;;11.30;;
60436;SDS011;46289;51.992;4.498;2023-02-12T03:22:00;20.00;;;10.75;;
60436;SDS011;46289;51.992;4.498;2023-02-12T03:24:10;18.42;;;10.10;;
60436;SDS011;46289;51.992;4.498;2023-02-12T03:26:19;18.27;;;10.57;;
60436;SDS011;46289;51.992;4.498;2023-02-12T03:28:30;17.65;;;9.77;;
60436;SDS011;46289;51.992;4.498;2023-02-12T03:30:39;19.02;;;9.95;;
60436;SDS011;46289;51.992;4.498;2023-02-12T03:32:53;21.35;;;11.18;;
60436;SDS011;46289;51.992;4.498;2023-02-12T03:35:08;16.65;;;9.10;;
60436;SDS011;46289;51.992;4.498;2023-02-12T03:37:17;16.02;;;9.63;;
60436;SDS011;46289;51.992;4.498;2023-02-12T03:39:27;12.98;;;6.97;;
60436;SDS011;46289;51.992;4.498;2023-02-12T03:41:36;12.85;;;7.78;;
60436;SDS011;46289;51.992;4.498;2023-02-12T03:43:47;13.18;;;7.63;;
60436;SDS011;46289;51.992;4.498;2023-02-12T03:45:59;12.40;;;6.82;;
60436;SDS011;46289;51.992;4.498;2023-02-12T03:48:13;10.65;;;6.72;;
60436;SDS011;46289;51.992;4.498;2023-02-12T03:50:26;11.95;;;7.22;;
60436;SDS011;46289;51.992;4.498;2023-02-12T03:52:39;12.00;;;6.95;;
60436;SDS011;46289;51.992;4.498;2023-02-12T03:54:45;11.95;;;6.90;;
60436;SDS011;46289;51.992;4.498;2023-02-12T03:56:52;11.73;;;6.93;;
60436;SDS011;46289;51.992;4.498;2023-02-12T03:59:02;11.25;;;6.95;;
60436;SDS011;46289;51.992;4.498;2023-02-12T04:01:08;13.63;;;8.18;;
60436;SDS011;46289;51.992;4.498;2023-02-12T04:03:16;12.48;;;7.90;;
60436;SDS011;46289;51.992;4.498;2023-02-12T04:05:22;15.98;;;8.93;;
60436;SDS011;46289;51.992;4.498;2023-02-12T04:07:29;18.95;;;10.38;;
60436;SDS011;46289;51.992;4.498;2023-02-12T04:09:36;15.90;;;10.38;;
60436;SDS011;46289;51.992;4.498;2023-02-12T04:11:45;14.35;;;9.30;;
60436;SDS011;46289;51.992;4.498;2023-02-12T04:14:05;13.45;;;8.18;;
60436;SDS011;46289;51.992;4.498;2023-02-12T04:16:19;14.85;;;8.85;;
60436;SDS011;46289;51.992;4.498;2023-02-12T04:18:36;14.68;;;8.88;;
60436;SDS011;46289;51.992;4.498;2023-02-12T04:20:50;12.95;;;7.82;;
60436;SDS011;46289;51.992;4.498;2023-02-12T04:23:05;14.35;;;7.57;;
60436;SDS011;46289;51.992;4.498;2023-02-12T04:25:20;14.93;;;8.65;;
60436;SDS011;46289;51.992;4.498;2023-02-12T04:27:41;15.65;;;8.05;;
60436;SDS011;46289;51.992;4.498;2023-02-12T04:29:53;12.48;;;7.60;;
60436;SDS011;46289;51.992;4.498;2023-02-12T04:32:03;13.77;;;7.40;;
60436;SDS011;46289;51.992;4.498;2023-02-12T04:34:20;13.27;;;7.63;;
60436;SDS011;46289;51.992;4.498;2023-02-12T04:36:36;12.75;;;6.97;;
60436;SDS011;46289;51.992;4.498;2023-02-12T04:38:47;12.63;;;8.27;;
60436;SDS011;46289;51.992;4.498;2023-02-12T04:40:58;15.20;;;8.98;;
60436;SDS011;46289;51.992;4.498;2023-02-12T04:43:04;14.88;;;7.82;;
60436;SDS011;46289;51.992;4.498;2023-02-12T04:45:09;12.75;;;7.20;;
60436;SDS011;46289;51.992;4.498;2023-02-12T04:47:16;18.40;;;8.15;;
60436;SDS011;46289;51.992;4.498;2023-02-12T04:49:26;14.48;;;8.63;;
60436;SDS011;46289;51.992;4.498;2023-02-12T04:51:32;13.07;;;7.65;;
60436;SDS011;46289;51.992;4.498;2023-02-12T04:53:37;12.25;;;7.72;;
60436;SDS011;46289;51.992;4.498;2023-02-12T04:55:42;15.95;;;8.60;;
60436;SDS011;46289;51.992;4.498;2023-02-12T04:57:48;14.93;;;7.60;;
60436;SDS011;46289;51.992;4.498;2023-02-12T04:59:53;14.60;;;8.45;;
60436;SDS011;46289;51.992;4.498;2023-02-12T05:01:58;14.57;;;9.13;;
60436;SDS011;46289;51.992;4.498;2023-02-12T05:04:03;13.43;;;8.38;;
60436;SDS011;46289;51.992;4.498;2023-02-12T05:06:12;12.30;;;7.20;;
60436;SDS011;46289;51.992;4.498;2023-02-12T05:08:17;14.25;;;8.05;;
60436;SDS011;46289;51.992;4.498;2023-02-12T05:10:22;11.18;;;7.03;;
60436;SDS011;46289;51.992;4.498;2023-02-12T05:12:27;13.38;;;7.57;;
60436;SDS011;46289;51.992;4.498;2023-02-12T05:14:33;12.98;;;7.90;;
60436;SDS011;46289;51.992;4.498;2023-02-12T05:16:38;12.18;;;7.22;;
60436;SDS011;46289;51.992;4.498;2023-02-12T05:18:43;12.93;;;7.55;;
60436;SDS011;46289;51.992;4.498;2023-02-12T05:20:53;13.35;;;7.88;;
60436;SDS011;46289;51.992;4.498;2023-02-12T05:23:02;12.10;;;7.03;;
60436;SDS011;46289;51.992;4.498;2023-02-12T05:25:07;13.68;;;8.18;;
60436;SDS011;46289;51.992;4.498;2023-02-12T05:27:12;13.85;;;7.85;;
60436;SDS011;46289;51.992;4.498;2023-02-12T05:29:17;13.00;;;7.30;;
60436;SDS011;46289;51.992;4.498;2023-02-12T05:31:22;18.85;;;8.10;;
60436;SDS011;46289;51.992;4.498;2023-02-12T05:33:27;14.70;;;7.82;;
60436;SDS011;46289;51.992;4.498;2023-02-12T05:35:33;12.32;;;7.57;;
60436;SDS011;46289;51.992;4.498;2023-02-12T05:37:38;15.23;;;9.00;;
60436;SDS011;46289;51.992;4.498;2023-02-12T05:39:45;13.65;;;8.30;;
60436;SDS011;46289;51.992;4.498;2023-02-12T05:41:55;13.82;;;8.05;;
60436;SDS011;46289;51.992;4.498;2023-02-12T05:44:01;12.52;;;7.13;;
60436;SDS011;46289;51.992;4.498;2023-02-12T05:46:07;13.05;;;7.72;;
60436;SDS011;46289;51.992;4.498;2023-02-12T05:48:13;14.60;;;8.73;;
60436;SDS011;46289;51.992;4.498;2023-02-12T05:50:18;13.40;;;8.63;;
60436;SDS011;46289;51.992;4.498;2023-02-12T05:52:23;15.73;;;8.63;;
60436;SDS011;46289;51.992;4.498;2023-02-12T05:54:28;14.05;;;8.93;;
60436;SDS011;46289;51.992;4.498;2023-02-12T05:56:36;14.57;;;8.48;;
60436;SDS011;46289;51.992;4.498;2023-02-12T05:58:46;14.57;;;8.80;;
60436;SDS011;46289;51.992;4.498;2023-02-12T06:00:52;15.45;;;9.38;;
60436;SDS011;46289;51.992;4.498;2023-02-12T06:02:59;13.45;;;7.82;;
60436;SDS011;46289;51.992;4.498;2023-02-12T06:05:06;18.63;;;10.23;;
60436;SDS011;46289;51.992;4.498;2023-02-12T06:07:11;16.10;;;9.40;;
60436;SDS011;46289;51.992;4.498;2023-02-12T06:09:16;18.63;;;11.00;;
60436;SDS011;46289;51.992;4.498;2023-02-12T06:11:21;20.70;;;11.07;;
60436;SDS011;46289;51.992;4.498;2023-02-12T06:13:29;20.50;;;11.23;;
60436;SDS011;46289;51.992;4.498;2023-02-12T06:15:37;21.58;;;11.75;;
60436;SDS011;46289;51.992;4.498;2023-02-12T06:17:42;20.38;;;10.98;;
60436;SDS011;46289;51.992;4.498;2023-02-12T06:19:47;19.35;;;10.95;;
60436;SDS011;46289;51.992;4.498;2023-02-12T06:21:52;20.58;;;11.25;;
60436;SDS011;46289;51.992;4.498;2023-02-12T06:23:58;24.83;;;11.95;;
60436;SDS011;46289;51.992;4.498;2023-02-12T06:26:03;19.20;;;11.18;;
60436;SDS011;46289;51.992;4.498;2023-02-12T06:28:08;21.65;;;12.18;;
60436;SDS011;46289;51.992;4.498;2023-02-12T06:30:16;20.42;;;11.50;;
60436;SDS011;46289;51.992;4.498;2023-02-12T06:32:21;23.80;;;12.50;;
60436;SDS011;46289;51.992;4.498;2023-02-12T06:34:26;22.30;;;13.32;;
60436;SDS011;46289;51.992;4.498;2023-02-12T06:36:31;23.17;;;11.82;;
60436;SDS011;46289;51.992;4.498;2023-02-12T06:38:36;22.20;;;12.02;;
60436;SDS011;46289;51.992;4.498;2023-02-12T06:40:41;21.73;;;12.23;;
60436;SDS011;46289;51.992;4.498;2023-02-12T06:42:49;21.83;;;12.00;;
60436;SDS011;46289;51.992;4.498;2023-02-12T06:44:53;27.15;;;14.82;;
60436;SDS011;46289;51.992;4.498;2023-02-12T06:47:02;25.08;;;14.50;;
60436;SDS011;46289;51.992;4.498;2023-02-12T06:49:09;26.00;;;14.35;;
60436;SDS011;46289;51.992;4.498;2023-02-12T06:51:17;24.63;;;14.35;;
60436;SDS011;46289;51.992;4.498;2023-02-12T06:53:24;24.92;;;13.50;;
60436;SDS011;46289;51.992;4.498;2023-02-12T06:55:29;23.98;;;13.30;;
60436;SDS011;46289;51.992;4.498;2023-02-12T06:57:35;26.75;;;13.20;;
60436;SDS011;46289;51.992;4.498;2023-02-12T06:59:40;21.10;;;12.82;;
60436;SDS011;46289;51.992;4.498;2023-02-12T07:01:45;25.92;;;13.45;;
60436;SDS011;46289;51.992;4.498;2023-02-12T07:03:53;26.70;;;15.20;;
60436;SDS011;46289;51.992;4.498;2023-02-12T07:06:00;26.15;;;13.07;;
60436;SDS011;46289;51.992;4.498;2023-02-12T07:08:07;20.95;;;11.55;;
60436;SDS011;46289;51.992;4.498;2023-02-12T07:10:12;26.05;;;13.23;;
60436;SDS011;46289;51.992;4.498;2023-02-12T07:12:17;18.98;;;11.27;;
60436;SDS011;46289;51.992;4.498;2023-02-12T07:14:21;20.55;;;11.95;;
60436;SDS011;46289;51.992;4.498;2023-02-12T07:16:27;23.60;;;12.25;;
60436;SDS011;46289;51.992;4.498;2023-02-12T07:18:32;22.67;;;12.20;;
60436;SDS011;46289;51.992;4.498;2023-02-12T07:20:40;21.33;;;11.98;;
60436;SDS011;46289;51.992;4.498;2023-02-12T07:22:45;21.60;;;11.73;;
60436;SDS011;46289;51.992;4.498;2023-02-12T07:24:53;19.40;;;11.45;;
60436;SDS011;46289;51.992;4.498;2023-02-12T07:26:58;19.05;;;11.93;;
60436;SDS011;46289;51.992;4.498;2023-02-12T07:29:03;19.08;;;11.20;;
60436;SDS011;46289;51.992;4.498;2023-02-12T07:31:09;19.15;;;11.20;;
60436;SDS011;46289;51.992;4.498;2023-02-12T07:33:16;17.63;;;10.80;;
60436;SDS011;46289;51.992;4.498;2023-02-12T07:35:21;17.75;;;10.18;;
60436;SDS011;46289;51.992;4.498;2023-02-12T07:37:28;19.83;;;11.65;;
60436;SDS011;46289;51.992;4.498;2023-02-12T07:39:37;18.50;;;11.15;;
60436;SDS011;46289;51.992;4.498;2023-02-12T07:41:42;17.02;;;9.90;;
60436;SDS011;46289;51.992;4.498;2023-02-12T07:43:47;17.55;;;9.82;;
60436;SDS011;46289;51.992;4.498;2023-02-12T07:46:03;16.48;;;9.73;;
60436;SDS011;46289;51.992;4.498;2023-02-12T07:48:09;18.33;;;10.65;;
60436;SDS011;46289;51.992;4.498;2023-02-12T07:50:15;22.10;;;11.30;;
60436;SDS011;46289;51.992;4.498;2023-02-12T07:52:20;18.90;;;10.95;;
60436;SDS011;46289;51.992;4.498;2023-02-12T07:54:27;20.42;;;11.30;;
60436;SDS011;46289;51.992;4.498;2023-02-12T07:56:33;16.25;;;10.13;;
60436;SDS011;46289;51.992;4.498;2023-02-12T07:58:42;19.77;;;11.10;;
60436;SDS011;46289;51.992;4.498;2023-02-12T08:00:51;16.77;;;9.13;;
60436;SDS011;46289;51.992;4.498;2023-02-12T08:02:56;21.40;;;11.68;;
60436;SDS011;46289;51.992;4.498;2023-02-12T08:05:01;20.92;;;11.45;;
60436;SDS011;46289;51.992;4.498;2023-02-12T08:07:06;20.42;;;10.55;;
60436;SDS011;46289;51.992;4.498;2023-02-12T08:09:12;22.25;;;11.75;;
60436;SDS011;46289;51.992;4.498;2023-02-12T08:11:22;18.40;;;11.27;;
60436;SDS011;46289;51.992;4.498;2023-02-12T08:13:27;21.17;;;11.57;;
60436;SDS011;46289;51.992;4.498;2023-02-12T08:15:32;18.65;;;10.88;;
60436;SDS011;46289;51.992;4.498;2023-02-12T08:17:37;19.27;;;11.57;;
60436;SDS011;46289;51.992;4.498;2023-02-12T08:19:44;20.00;;;11.32;;
60436;SDS011;46289;51.992;4.498;2023-02-12T08:21:52;17.77;;;9.57;;
60436;SDS011;46289;51.992;4.498;2023-02-12T08:23:58;17.52;;;10.20;;
60436;SDS011;46289;51.992;4.498;2023-02-12T08:26:07;19.83;;;10.43;;
60436;SDS011;46289;51.992;4.498;2023-02-12T08:28:17;21.13;;;12.65;;
60436;SDS011;46289;51.992;4.498;2023-02-12T08:30:23;23.23;;;12.60;;
60436;SDS011;46289;51.992;4.498;2023-02-12T08:32:28;19.38;;;11.27;;
60436;SDS011;46289;51.992;4.498;2023-02-12T08:34:35;18.23;;;10.35;;
60436;SDS011;46289;51.992;4.498;2023-02-12T08:36:41;19.58;;;11.73;;
60436;SDS011;46289;51.992;4.498;2023-02-12T08:38:46;18.13;;;10.15;;
60436;SDS011;46289;51.992;4.498;2023-02-12T08:40:52;18.10;;;10.30;;
60436;SDS011;46289;51.992;4.498;2023-02-12T08:42:59;18.67;;;10.18;;
60436;SDS011;46289;51.992;4.498;2023-02-12T08:45:07;15.88;;;9.98;;
60436;SDS011;46289;51.992;4.498;2023-02-12T08:47:13;18.40;;;10.35;;
60436;SDS011;46289;51.992;4.498;2023-02-12T08:49:18;15.25;;;9.30;;
60436;SDS011;46289;51.992;4.498;2023-02-12T08:51:26;16.63;;;9.43;;
60436;SDS011;46289;51.992;4.498;2023-02-12T08:53:33;15.45;;;9.80;;
60436;SDS011;46289;51.992;4.498;2023-02-12T08:55:38;17.42;;;9.25;;
60436;SDS011;46289;51.992;4.498;2023-02-12T08:57:43;23.20;;;12.95;;
60436;SDS011;46289;51.992;4.498;2023-02-12T08:59:48;21.83;;;11.43;;
60436;SDS011;46289;51.992;4.498;2023-02-12T09:01:55;18.67;;;11.95;;
60436;SDS011;46289;51.992;4.498;2023-02-12T09:04:01;19.45;;;10.50;;
60436;SDS011;46289;51.992;4.498;2023-02-12T09:06:06;18.42;;;10.35;;
60436;SDS011;46289;51.992;4.498;2023-02-12T09:08:12;17.52;;;9.68;;
60436;SDS011;46289;51.992;4.498;2023-02-12T09:10:17;17.52;;;9.65;;
60436;SDS011;46289;51.992;4.498;2023-02-12T09:12:22;19.40;;;10.68;;
60436;SDS011;46289;51.992;4.498;2023-02-12T09:14:27;17.02;;;10.43;;
60436;SDS011;46289;51.992;4.498;2023-02-12T09:16:33;19.38;;;10.70;;
60436;SDS011;46289;51.992;4.498;2023-02-12T09:18:43;18.92;;;11.15;;
60436;SDS011;46289;51.992;4.498;2023-02-12T09:20:50;21.50;;;10.35;;
60436;SDS011;46289;51.992;4.498;2023-02-12T09:22:57;18.08;;;10.75;;
60436;SDS011;46289;51.992;4.498;2023-02-12T09:25:03;16.90;;;10.35;;
60436;SDS011;46289;51.992;4.498;2023-02-12T09:27:08;20.58;;;11.38;;
60436;SDS011;46289;51.992;4.498;2023-02-12T09:29:13;16.45;;;9.43;;
60436;SDS011;46289;51.992;4.498;2023-02-12T09:31:19;19.13;;;11.30;;
60436;SDS011;46289;51.992;4.498;2023-02-12T09:33:27;16.75;;;10.55;;
60436;SDS011;46289;51.992;4.498;2023-02-12T09:35:35;19.05;;;11.18;;
60436;SDS011;46289;51.992;4.498;2023-02-12T09:37:41;20.95;;;11.77;;
60436;SDS011;46289;51.992;4.498;2023-02-12T09:39:47;19.60;;;10.60;;
60436;SDS011;46289;51.992;4.498;2023-02-12T09:44:24;21.92;;;11.38;;
60436;SDS011;46289;51.992;4.498;2023-02-12T09:46:38;17.45;;;10.40;;
60436;SDS011;46289;51.992;4.498;2023-02-12T09:48:54;19.67;;;10.23;;
60436;SDS011;46289;51.992;4.498;2023-02-12T09:51:11;17.80;;;10.57;;
60436;SDS011;46289;51.992;4.498;2023-02-12T09:53:18;18.20;;;11.13;;
60436;SDS011;46289;51.992;4.498;2023-02-12T09:55:25;21.30;;;10.48;;
60436;SDS011;46289;51.992;4.498;2023-02-12T09:57:34;19.05;;;10.98;;
60436;SDS011;46289;51.992;4.498;2023-02-12T09:59:42;20.83;;;11.68;;
60436;SDS011;46289;51.992;4.498;2023-02-12T10:01:51;19.20;;;10.77;;
60436;SDS011;46289;51.992;4.498;2023-02-12T10:03:56;19.38;;;10.65;;
60436;SDS011;46289;51.992;4.498;2023-02-12T10:06:06;17.90;;;9.85;;
60436;SDS011;46289;51.992;4.498;2023-02-12T10:08:27;16.25;;;10.45;;
60436;SDS011;46289;51.992;4.498;2023-02-12T10:10:46;23.08;;;11.32;;
60436;SDS011;46289;51.992;4.498;2023-02-12T10:12:55;20.88;;;9.85;;
60436;SDS011;46289;51.992;4.498;2023-02-12T10:15:14;18.60;;;10.63;;
60436;SDS011;46289;51.992;4.498;2023-02-12T10:17:30;19.58;;;10.80;;
60436;SDS011;46289;51.992;4.498;2023-02-12T10:19:51;21.42;;;11.68;;
60436;SDS011;46289;51.992;4.498;2023-02-12T10:22:12;19.65;;;10.27;;
60436;SDS011;46289;51.992;4.498;2023-02-12T10:27:03;17.17;;;10.20;;
60436;SDS011;46289;51.992;4.498;2023-02-12T10:29:16;18.60;;;10.65;;
60436;SDS011;46289;51.992;4.498;2023-02-12T10:31:24;20.27;;;11.07;;
60436;SDS011;46289;51.992;4.498;2023-02-12T10:33:34;22.48;;;11.43;;
60436;SDS011;46289;51.992;4.498;2023-02-12T10:35:42;21.25;;;10.20;;
60436;SDS011;46289;51.992;4.498;2023-02-12T10:37:52;18.85;;;9.55;;
60436;SDS011;46289;51.992;4.498;2023-02-12T10:40:03;18.08;;;10.25;;
60436;SDS011;46289;51.992;4.498;2023-02-12T10:42:20;18.58;;;10.15;;
60436;SDS011;46289;51.992;4.498;2023-02-12T10:44:38;17.92;;;10.50;;
60436;SDS011;46289;51.992;4.498;2023-02-12T10:46:43;20.38;;;11.65;;
60436;SDS011;46289;51.992;4.498;2023-02-12T10:48:50;17.33;;;10.23;;
60436;SDS011;46289;51.992;4.498;2023-02-12T10:51:01;19.77;;;10.48;;
60436;SDS011;46289;51.992;4.498;2023-02-12T10:53:28;18.95;;;11.00;;
60436;SDS011;46289;51.992;4.498;2023-02-12T10:55:39;19.83;;;10.13;;
60436;SDS011;46289;51.992;4.498;2023-02-12T10:57:45;21.98;;;10.63;;
60436;SDS011;46289;51.992;4.498;2023-02-12T10:59:52;22.73;;;11.85;;
60436;SDS011;46289;51.992;4.498;2023-02-12T11:01:59;19.58;;;9.55;;
60436;SDS011;46289;51.992;4.498;2023-02-12T11:04:18;18.90;;;10.30;;
60436;SDS011;46289;51.992;4.498;2023-02-12T11:08:34;17.52;;;10.70;;
60436;SDS011;46289;51.992;4.498;2023-02-12T11:10:45;19.30;;;11.73;;
60436;SDS011;46289;51.992;4.498;2023-02-12T11:12:50;21.95;;;10.93;;
60436;SDS011;46289;51.992;4.498;2023-02-12T11:14:58;23.42;;;11.75;;
60436;SDS011;46289;51.992;4.498;2023-02-12T11:17:05;21.80;;;11.38;;
60436;SDS011;46289;51.992;4.498;2023-02-12T11:19:19;21.23;;;10.35;;
60436;SDS011;46289;51.992;4.498;2023-02-12T11:21:25;20.15;;;11.15;;
60436;SDS011;46289;51.992;4.498;2023-02-12T11:23:30;20.23;;;10.32;;
60436;SDS011;46289;51.992;4.498;2023-02-12T11:25:37;18.23;;;9.70;;
60436;SDS011;46289;51.992;4.498;2023-02-12T11:28:02;18.27;;;10.45;;
60436;SDS011;46289;51.992;4.498;2023-02-12T11:30:13;17.40;;;9.60;;
60436;SDS011;46289;51.992;4.498;2023-02-12T11:32:25;17.65;;;9.40;;
60436;SDS011;46289;51.992;4.498;2023-02-12T11:34:30;16.98;;;10.15;;
60436;SDS011;46289;51.992;4.498;2023-02-12T11:36:35;16.63;;;8.90;;
60436;SDS011;46289;51.992;4.498;2023-02-12T11:38:46;19.70;;;9.75;;
60436;SDS011;46289;51.992;4.498;2023-02-12T11:40:59;16.77;;;8.93;;
60436;SDS011;46289;51.992;4.498;2023-02-12T11:43:13;19.02;;;9.10;;
60436;SDS011;46289;51.992;4.498;2023-02-12T11:45:22;22.48;;;10.05;;
60436;SDS011;46289;51.992;4.498;2023-02-12T11:47:34;19.27;;;9.90;;
60436;SDS011;46289;51.992;4.498;2023-02-12T11:49:49;17.73;;;9.45;;
60436;SDS011;46289;51.992;4.498;2023-02-12T11:51:58;19.38;;;10.48;;
60436;SDS011;46289;51.992;4.498;2023-02-12T11:54:13;19.38;;;10.73;;
60436;SDS011;46289;51.992;4.498;2023-02-12T11:56:24;21.88;;;10.30;;
60436;SDS011;46289;51.992;4.498;2023-02-12T11:58:53;26.83;;;10.50;;
60436;SDS011;46289;51.992;4.498;2023-02-12T12:01:33;19.08;;;9.52;;
60436;SDS011;46289;51.992;4.498;2023-02-12T12:03:44;20.42;;;10.20;;
60436;SDS011;46289;51.992;4.498;2023-02-12T12:05:58;17.48;;;9.80;;
60436;SDS011;46289;51.992;4.498;2023-02-12T12:08:10;18.90;;;9.98;;
60436;SDS011;46289;51.992;4.498;2023-02-12T12:10:24;16.13;;;9.65;;
60436;SDS011;46289;51.992;4.498;2023-02-12T12:12:39;17.92;;;7.97;;
60436;SDS011;46289;51.992;4.498;2023-02-12T12:14:52;14.63;;;7.93;;
60436;SDS011;46289;51.992;4.498;2023-02-12T12:17:12;16.92;;;7.65;;
60436;SDS011;46289;51.992;4.498;2023-02-12T12:19:33;17.58;;;8.43;;
60436;SDS011;46289;51.992;4.498;2023-02-12T12:21:58;15.98;;;7.55;;
60436;SDS011;46289;51.992;4.498;2023-02-12T12:24:09;13.48;;;7.78;;
60436;SDS011;46289;51.992;4.498;2023-02-12T12:26:19;13.98;;;7.47;;
60436;SDS011;46289;51.992;4.498;2023-02-12T12:28:29;13.50;;;7.63;;
60436;SDS011;46289;51.992;4.498;2023-02-12T12:30:53;17.20;;;7.95;;
60436;SDS011;46289;51.992;4.498;2023-02-12T12:33:05;17.75;;;9.00;;
60436;SDS011;46289;51.992;4.498;2023-02-12T12:35:22;14.98;;;7.50;;
60436;SDS011;46289;51.992;4.498;2023-02-12T12:37:39;13.65;;;7.63;;
60436;SDS011;46289;51.992;4.498;2023-02-12T12:39:59;14.00;;;7.72;;
60436;SDS011;46289;51.992;4.498;2023-02-12T12:42:26;14.75;;;7.22;;
60436;SDS011;46289;51.992;4.498;2023-02-12T12:45:00;16.55;;;8.50;;
60436;SDS011;46289;51.992;4.498;2023-02-12T12:47:26;17.10;;;7.32;;
60436;SDS011;46289;51.992;4.498;2023-02-12T12:49:43;17.10;;;7.72;;
60436;SDS011;46289;51.992;4.498;2023-02-12T12:54:55;16.80;;;7.97;;